Аэропорт: им. Гейдара Алиева. Баку

ICAO: UBBB

METAR:
2024-04-22 21:00:00
UBBB 222100Z 32012KT CAVOK 19/09 Q1017 NOSIG
TAF:
2024-04-22 16:59:00
TAF UBBB 221659Z 2218/2318 33012KT 9999 SCT030 TX22/2309Z TN14/2301Z 
  TEMPO 2218/2224 32016KT FEW030CB 
  TEMPO 2303/2312 35018G28KT SCT020 
  BECMG 2315/2317 32008KT